Time;durP1;ratioP1;P1;durP2;ratioP2;P2;SDS_P1;SDS_P2;PMS_P1;PMS_P2;Temp;Humidity;BMP_temperature;BMP_pressure;BME280_temperature;BME280_humidity;BME280_pressure;Samples;Min_cycle;Max_cycle;Signal;HPM_P1;HPM_P2
2021/11/11 00:00:55;;;;;;;12.10;3.47;;;19.80;99.90;;;;;;5008670;28;20469;-72
2021/11/11 00:03:22;;;;;;;14.30;3.65;;;19.80;99.90;;;;;;5011335;28;20014;-69
2021/11/11 00:05:49;;;;;;;11.00;3.83;;;19.70;99.90;;;;;;5011633;28;20022;-68
2021/11/11 00:08:17;;;;;;;11.70;3.38;;;19.60;99.90;;;;;;5011600;28;20014;-67
2021/11/11 00:10:45;;;;;;;11.70;3.10;;;19.60;99.90;;;;;;5011101;28;20030;-68
2021/11/11 00:13:12;;;;;;;23.17;11.50;;;19.70;99.90;;;;;;5010576;28;20415;-67
2021/11/11 00:15:39;;;;;;;10.75;3.70;;;19.90;99.90;;;;;;5010766;28;20049;-68
2021/11/11 00:18:06;;;;;;;15.80;5.05;;;19.90;99.90;;;;;;5011322;28;20029;-69
2021/11/11 00:20:33;;;;;;;14.80;3.40;;;19.90;99.90;;;;;;5010792;28;20492;-68
2021/11/11 00:23:00;;;;;;;17.23;3.33;;;19.90;99.90;;;;;;5010796;28;20022;-69
2021/11/11 00:25:29;;;;;;;12.90;3.65;;;19.90;99.90;;;;;;5010500;28;20472;-66
2021/11/11 00:27:57;;;;;;;18.52;4.70;;;19.90;99.90;;;;;;5008996;28;20053;-67
2021/11/11 00:30:24;;;;;;;17.85;3.05;;;19.90;99.90;;;;;;5009131;28;20022;-67
2021/11/11 00:32:52;;;;;;;10.52;3.00;;;19.90;99.90;;;;;;5010580;28;20032;-66
2021/11/11 00:35:24;;;;;;;13.88;3.00;;;19.90;99.90;;;;;;5011076;28;20029;-68
2021/11/11 00:37:53;;;;;;;15.10;4.80;;;20.00;99.90;;;;;;5010531;28;20105;-67
2021/11/11 00:40:20;;;;;;;14.40;3.00;;;19.90;99.90;;;;;;5010477;28;20092;-69
2021/11/11 00:42:48;;;;;;;11.80;3.15;;;19.80;99.90;;;;;;5010971;28;20032;-68
2021/11/11 00:45:16;;;;;;;16.67;4.68;;;19.80;99.90;;;;;;5008233;28;20392;-69
2021/11/11 00:47:44;;;;;;;15.27;3.20;;;19.70;99.90;;;;;;5010728;28;20456;-68
2021/11/11 00:50:12;;;;;;;15.93;3.35;;;19.60;99.90;;;;;;5010110;28;20054;-68
2021/11/11 00:52:39;;;;;;;12.65;4.22;;;19.60;99.90;;;;;;5009739;28;20072;-67
2021/11/11 00:55:07;;;;;;;15.68;4.78;;;19.40;99.90;;;;;;5027743;28;20100;-66
2021/11/11 00:57:34;;;;;;;13.93;4.22;;;19.40;99.90;;;;;;5030110;28;20029;-66
2021/11/11 01:00:02;;;;;;;21.80;6.80;;;19.50;99.90;;;;;;5029911;28;20380;-65
2021/11/11 01:02:29;;;;;;;15.90;4.28;;;19.40;99.90;;;;;;5029764;28;20060;-68
2021/11/11 01:04:56;;;;;;;16.67;5.03;;;19.40;99.90;;;;;;5028763;28;20388;-66
2021/11/11 01:07:24;;;;;;;13.15;3.03;;;19.40;99.90;;;;;;5028575;28;20479;-70
2021/11/11 01:09:51;;;;;;;18.73;3.90;;;19.50;99.90;;;;;;5029343;28;20040;-68
2021/11/11 01:12:18;;;;;;;13.10;3.55;;;19.30;99.90;;;;;;5029467;28;20076;-71
2021/11/11 01:14:45;;;;;;;17.35;4.18;;;19.40;99.90;;;;;;5029371;28;20087;-70
2021/11/11 01:17:12;;;;;;;14.95;3.05;;;19.60;99.90;;;;;;5029720;28;20026;-68
2021/11/11 01:19:39;;;;;;;14.88;3.80;;;19.70;99.90;;;;;;5029272;28;20013;-71
2021/11/11 01:22:06;;;;;;;12.05;3.38;;;19.70;99.90;;;;;;5026300;28;20523;-70
2021/11/11 01:24:34;;;;;;;15.00;3.53;;;19.60;99.90;;;;;;5028539;28;20426;-69
2021/11/11 01:27:01;;;;;;;19.70;4.30;;;19.50;99.90;;;;;;5029313;28;20021;-69
2021/11/11 01:29:28;;;;;;;15.95;3.47;;;19.30;99.90;;;;;;5028224;28;20026;-70
2021/11/11 01:31:56;;;;;;;14.10;3.60;;;19.20;99.90;;;;;;5028935;28;20022;-70
2021/11/11 01:34:27;;;;;;;11.50;3.38;;;19.20;99.90;;;;;;5024555;28;20022;-68
2021/11/11 01:36:55;;;;;;;13.32;3.58;;;19.20;99.90;;;;;;5026810;28;20112;-70
2021/11/11 01:39:23;;;;;;;17.15;2.80;;;19.10;99.90;;;;;;5024674;28;20373;-69
2021/11/11 01:41:50;;;;;;;19.42;3.42;;;19.10;99.90;;;;;;5026720;28;20487;-69
2021/11/11 01:44:19;;;;;;;13.23;2.95;;;18.90;99.90;;;;;;5030012;28;20064;-69
2021/11/11 01:46:46;;;;;;;18.67;4.97;;;18.70;99.90;;;;;;5028408;28;20044;-68
2021/11/11 01:49:14;;;;;;;14.98;3.60;;;18.60;99.90;;;;;;5030670;28;20022;-69
2021/11/11 01:51:44;;;;;;;15.38;4.20;;;18.60;99.90;;;;;;5028532;28;20029;-68
2021/11/11 01:54:11;;;;;;;16.52;3.17;;;18.50;99.90;;;;;;5030245;28;20049;-70
2021/11/11 01:56:39;;;;;;;12.90;3.05;;;18.50;99.90;;;;;;5028773;28;20051;-69
2021/11/11 01:59:06;;;;;;;16.83;3.30;;;18.60;99.90;;;;;;5032094;28;20563;-69
2021/11/11 02:01:34;;;;;;;15.75;2.90;;;18.70;99.90;;;;;;5038250;28;20535;-69
2021/11/11 02:04:01;;;;;;;16.95;2.95;;;18.80;99.90;;;;;;5030071;28;20034;-70
2021/11/11 02:06:28;;;;;;;15.85;3.60;;;18.90;99.90;;;;;;5028389;28;20424;-70
2021/11/11 02:08:55;;;;;;;10.57;2.92;;;19.00;99.90;;;;;;5031489;28;20469;-70
2021/11/11 02:11:23;;;;;;;14.52;5.05;;;19.00;99.90;;;;;;5032010;28;20021;-72
2021/11/11 02:13:51;;;;;;;13.45;3.83;;;19.00;99.90;;;;;;5032634;28;20030;-68
2021/11/11 02:16:18;;;;;;;14.70;4.82;;;19.00;99.90;;;;;;5030149;28;20026;-69
2021/11/11 02:18:45;;;;;;;11.20;3.30;;;19.00;99.90;;;;;;5029483;28;20467;-71
2021/11/11 02:21:13;;;;;;;17.85;4.03;;;19.00;99.90;;;;;;5028971;28;20034;-69
2021/11/11 02:23:41;;;;;;;11.80;3.08;;;18.80;99.90;;;;;;5029744;28;20112;-69
2021/11/11 02:26:08;;;;;;;9.00;3.35;;;18.80;99.90;;;;;;5030006;28;20380;-71
2021/11/11 02:28:36;;;;;;;12.85;3.42;;;18.80;99.90;;;;;;5029073;28;20017;-70
2021/11/11 02:31:04;;;;;;;13.10;3.90;;;18.80;99.90;;;;;;5029129;28;20056;-67
2021/11/11 02:33:31;;;;;;;12.32;3.53;;;18.90;99.90;;;;;;5010654;28;20860;-71
2021/11/11 02:35:58;;;;;;;12.35;3.08;;;18.80;99.90;;;;;;5028277;28;20027;-69
2021/11/11 02:38:25;;;;;;;13.73;2.92;;;18.70;99.90;;;;;;5028847;28;20018;-68
2021/11/11 02:40:53;;;;;;;13.25;3.50;;;18.50;99.90;;;;;;5028835;28;20021;-68
2021/11/11 02:43:20;;;;;;;14.50;3.40;;;18.40;99.90;;;;;;5028514;28;20100;-70
2021/11/11 02:45:50;;;;;;;11.30;3.08;;;18.50;99.90;;;;;;5029126;28;20492;-69
2021/11/11 02:48:20;;;;;;;17.55;3.70;;;18.60;99.90;;;;;;4678776;28;10000216;-68
2021/11/11 02:50:49;;;;;;;10.32;3.08;;;18.60;99.90;;;;;;5026468;28;20021;-71
2021/11/11 02:53:17;;;;;;;14.45;3.30;;;18.60;99.90;;;;;;5025578;28;20464;-69
2021/11/11 02:55:45;;;;;;;11.73;2.78;;;18.60;99.90;;;;;;5025630;28;20476;-69
2021/11/11 02:58:12;;;;;;;10.43;2.97;;;18.70;99.90;;;;;;5023882;28;20091;-68
2021/11/11 03:01:03;;;;;;;15.25;3.42;;;18.70;99.90;;;;;;5025284;28;20029;-68
2021/11/11 03:03:31;;;;;;;10.10;3.17;;;18.80;99.90;;;;;;5024570;28;20025;-70
2021/11/11 03:05:58;;;;;;;14.85;2.75;;;18.90;99.90;;;;;;5025952;28;20032;-70
2021/11/11 03:08:26;;;;;;;15.45;3.75;;;18.90;99.90;;;;;;5024031;28;20393;-69
2021/11/11 03:10:53;;;;;;;14.38;2.50;;;18.80;99.90;;;;;;5024600;28;20484;-70
2021/11/11 03:13:20;;;;;;;11.85;2.70;;;18.50;99.90;;;;;;5025240;28;20121;-69
2021/11/11 03:15:48;;;;;;;9.73;3.10;;;18.40;99.90;;;;;;5025801;28;20131;-70
2021/11/11 03:18:15;;;;;;;8.48;3.10;;;18.30;99.90;;;;;;5025169;28;20021;-71
2021/11/11 03:20:42;;;;;;;19.77;3.00;;;18.40;99.90;;;;;;5024242;28;20025;-71
2021/11/11 03:23:09;;;;;;;16.48;3.55;;;18.40;99.90;;;;;;5025424;28;20538;-71
2021/11/11 03:25:37;;;;;;;15.25;2.38;;;18.30;99.90;;;;;;5025283;28;20030;-68
2021/11/11 03:28:05;;;;;;;15.15;3.20;;;18.30;99.90;;;;;;5025487;28;20026;-71
2021/11/11 03:30:33;;;;;;;15.32;3.88;;;18.20;99.90;;;;;;5007776;28;20025;-68
2021/11/11 03:33:02;;;;;;;10.35;3.40;;;18.30;99.90;;;;;;5024969;28;20029;-69
2021/11/11 03:35:29;;;;;;;11.48;2.78;;;18.20;99.90;;;;;;5024709;28;20587;-71
2021/11/11 03:38:01;;;;;;;11.18;3.10;;;18.00;99.90;;;;;;5025019;28;20026;-69
2021/11/11 03:40:30;;;;;;;;;;;17.80;99.90;;;;;;5025924;28;20120;-70
2021/11/11 03:42:58;;;;;;;13.32;2.92;;;17.60;99.90;;;;;;5005905;28;20259;-70
2021/11/11 03:45:27;;;;;;;13.48;3.80;;;17.50;99.90;;;;;;5024152;28;20071;-69
2021/11/11 03:47:55;;;;;;;13.17;2.73;;;17.50;99.90;;;;;;4677663;28;9999891;-75
2021/11/11 03:50:23;;;;;;;15.60;2.80;;;17.40;99.90;;;;;;5024241;28;20351;-68
2021/11/11 03:52:51;;;;;;;10.13;3.17;;;17.40;99.90;;;;;;5005932;28;20041;-67
2021/11/11 03:55:24;;;;;;;11.20;2.50;;;17.50;99.90;;;;;;5024152;28;20053;-74
2021/11/11 03:57:54;;;;;;;11.45;2.50;;;17.50;99.90;;;;;;5024387;28;20282;-74
2021/11/11 04:00:23;;;;;;;13.82;3.40;;;17.60;99.90;;;;;;5024140;28;20040;-69
2021/11/11 04:02:50;;;;;;;9.10;2.72;;;17.60;99.90;;;;;;5022514;28;20188;-69
2021/11/11 04:05:18;;;;;;;19.33;4.45;;;17.60;99.90;;;;;;5023254;28;20017;-67
2021/11/11 04:07:45;;;;;;;12.07;2.95;;;17.60;99.90;;;;;;5024375;28;20125;-67
2021/11/11 04:10:12;;;;;;;12.82;3.47;;;17.60;99.90;;;;;;5026115;28;20020;-73
2021/11/11 04:12:39;;;;;;;10.65;3.42;;;17.60;99.90;;;;;;5009504;28;20017;-68
2021/11/11 04:15:08;;;;;;;13.38;2.88;;;17.70;99.90;;;;;;5022990;28;20029;-67
2021/11/11 04:17:35;;;;;;;15.48;4.22;;;17.70;99.90;;;;;;5025002;28;20018;-67
2021/11/11 04:20:02;;;;;;;13.57;3.28;;;17.60;99.90;;;;;;5025253;28;20026;-74
2021/11/11 04:22:29;;;;;;;12.02;3.30;;;17.60;99.90;;;;;;5025088;28;20018;-69
2021/11/11 04:24:58;;;;;;;18.58;4.13;;;17.70;99.90;;;;;;5024021;28;20079;-68
2021/11/11 04:27:31;;;;;;;9.30;2.40;;;17.70;99.90;;;;;;5022711;28;20053;-68
2021/11/11 04:30:42;;;;;;;9.38;3.13;;;17.80;99.90;;;;;;5007966;28;20029;-68
2021/11/11 04:32:48;;;;;;;17.27;3.40;;;17.80;99.90;;;;;;5010795;28;20562;-68
2021/11/11 04:35:15;;;;;;;14.20;2.88;;;17.70;99.90;;;;;;5024720;28;20026;-74
2021/11/11 04:37:50;;;;;;;15.65;3.90;;;17.60;99.90;;;;;;5024432;28;20230;-67
2021/11/11 05:04:31;;;;;;;15.95;4.80;;;17.20;99.90;;;;;;5023822;28;20156;-68
2021/11/11 05:06:58;;;;;;;14.95;3.30;;;17.30;99.90;;;;;;5023684;28;20112;-69
2021/11/11 05:09:25;;;;;;;11.90;3.13;;;17.30;99.90;;;;;;5005770;28;20124;-68
2021/11/11 05:11:52;;;;;;;14.80;3.75;;;17.30;99.90;;;;;;5021731;28;20017;-73
2021/11/11 05:14:19;;;;;;;17.08;4.72;;;17.30;99.90;;;;;;5005662;28;20535;-74
2021/11/11 05:16:46;;;;;;;14.57;3.47;;;17.30;99.90;;;;;;5021657;28;20648;-68
2021/11/11 05:19:13;;;;;;;13.75;3.30;;;17.30;99.90;;;;;;5023742;28;20392;-68
2021/11/11 05:21:40;;;;;;;17.13;3.92;;;17.30;99.90;;;;;;5023560;28;20503;-68
2021/11/11 05:24:07;;;;;;;12.32;3.22;;;17.20;99.90;;;;;;5021548;28;20029;-69
2021/11/11 05:26:34;;;;;;;17.23;3.72;;;17.20;99.90;;;;;;5018354;28;20041;-75
2021/11/11 05:29:01;;;;;;;15.18;3.97;;;17.10;99.90;;;;;;5020629;28;20535;-69
2021/11/11 05:31:28;;;;;;;17.20;4.32;;;17.00;99.90;;;;;;5021165;28;20390;-69
2021/11/11 05:33:56;;;;;;;13.85;3.88;;;16.80;99.90;;;;;;5018855;28;20072;-70
2021/11/11 05:36:23;;;;;;;17.30;4.35;;;16.60;99.90;;;;;;5019009;28;20124;-70
2021/11/11 05:38:50;;;;;;;13.85;5.32;;;16.50;99.90;;;;;;5018925;28;20124;-70
2021/11/11 05:41:17;;;;;;;13.52;3.95;;;16.50;99.90;;;;;;5020723;28;20449;-71
2021/11/11 05:43:44;;;;;;;15.23;4.68;;;16.50;99.90;;;;;;5021877;28;20445;-68
2021/11/11 05:46:11;;;;;;;12.10;4.80;;;16.50;99.90;;;;;;5021105;28;20392;-69
2021/11/11 05:48:38;;;;;;;14.43;4.78;;;16.50;99.90;;;;;;5021736;28;20507;-69
2021/11/11 05:51:05;;;;;;;13.15;4.47;;;16.50;99.90;;;;;;5021977;28;20028;-72
2021/11/11 05:53:35;;;;;;;22.75;6.70;;;16.50;99.90;;;;;;5018027;28;20470;-73
2021/11/11 05:56:02;;;;;;;15.18;5.50;;;16.50;99.90;;;;;;5020519;28;20041;-72
2021/11/11 05:58:29;;;;;;;15.77;5.70;;;16.50;99.90;;;;;;5018178;28;20083;-68
2021/11/11 06:00:56;;;;;;;16.20;5.70;;;16.30;99.90;;;;;;5017553;28;20084;-73
2021/11/11 06:03:23;;;;;;;14.25;5.57;;;16.30;99.90;;;;;;5017977;28;20117;-73
2021/11/11 06:05:50;;;;;;;12.50;6.20;;;16.20;99.90;;;;;;5018806;28;20113;-72
2021/11/11 06:08:17;;;;;;;18.23;7.10;;;16.20;99.90;;;;;;5020332;28;20091;-67
2021/11/11 06:10:44;;;;;;;19.42;6.45;;;16.30;99.90;;;;;;5000155;28;20408;-72
2021/11/11 06:13:11;;;;;;;19.90;7.85;;;16.30;99.90;;;;;;5019746;28;20033;-68
2021/11/11 06:15:39;;;;;;;14.88;6.95;;;16.30;99.90;;;;;;5019943;28;20045;-67
2021/11/11 06:18:09;;;;;;;20.98;7.95;;;16.30;99.90;;;;;;5017499;28;20391;-72
2021/11/11 06:20:42;;;;;;;16.25;7.25;;;16.20;99.90;;;;;;5016762;28;20030;-68
2021/11/11 06:23:09;;;;;;;13.18;6.65;;;16.40;99.90;;;;;;5019169;28;20056;-68
2021/11/11 06:25:37;;;;;;;18.95;7.43;;;16.40;99.90;;;;;;5016517;28;20075;-69
2021/11/11 06:28:04;;;;;;;16.17;6.72;;;16.30;99.90;;;;;;5016815;28;20045;-67
2021/11/11 06:30:31;;;;;;;15.10;7.35;;;16.40;99.90;;;;;;5016358;28;20067;-69
2021/11/11 06:32:58;;;;;;;12.15;5.10;;;16.50;99.90;;;;;;5020891;28;20160;-68
2021/11/11 06:35:29;;;;;;;14.20;6.65;;;16.40;99.90;;;;;;5018903;28;20496;-67
2021/11/11 06:37:56;;;;;;;12.75;6.20;;;16.40;99.90;;;;;;5021286;28;20025;-68
2021/11/11 06:40:23;;;;;;;19.00;7.20;;;16.40;99.90;;;;;;5003428;28;20037;-68
2021/11/11 06:42:51;;;;;;;14.25;5.75;;;16.40;99.90;;;;;;5018631;28;20029;-68
2021/11/11 06:45:19;;;;;;;11.60;5.45;;;16.40;99.90;;;;;;5021749;28;20060;-66
2021/11/11 06:47:46;;;;;;;12.27;4.72;;;16.40;99.90;;;;;;5019381;28;20033;-67
2021/11/11 06:50:13;;;;;;;14.52;5.50;;;16.40;99.90;;;;;;5020046;28;20033;-69
2021/11/11 06:52:41;;;;;;;11.82;5.60;;;16.40;99.90;;;;;;5024476;28;20041;-66
2021/11/11 06:55:10;;;;;;;12.68;4.97;;;16.30;99.90;;;;;;5115412;22;20442;-66
2021/11/11 06:57:37;;;;;;;12.40;5.13;;;16.40;99.90;;;;;;5070685;28;20169;-70
2021/11/11 07:00:07;;;;;;;9.18;4.50;;;16.50;99.90;;;;;;5070237;28;20039;-67
2021/11/11 07:02:34;;;;;;;13.80;4.45;;;16.50;99.90;;;;;;5073114;28;20024;-71
2021/11/11 07:05:01;;;;;;;13.18;4.80;;;16.50;99.90;;;;;;5070757;28;20035;-67
2021/11/11 07:07:28;;;;;;;10.50;4.85;;;16.40;99.90;;;;;;5070273;28;20036;-65
2021/11/11 07:09:55;;;;;;;10.13;4.72;;;16.40;99.90;;;;;;5068124;28;20024;-69
2021/11/11 07:12:22;;;;;;;13.30;4.80;;;16.40;99.90;;;;;;5067879;28;20024;-68
2021/11/11 07:14:49;;;;;;;11.75;5.28;;;16.40;99.90;;;;;;5069077;28;20515;-69
2021/11/11 07:17:17;;;;;;;13.35;4.80;;;16.50;99.90;;;;;;5069440;28;20040;-69
2021/11/11 07:19:44;;;;;;;9.70;4.88;;;16.50;99.90;;;;;;5068498;28;20031;-69
2021/11/11 07:22:11;;;;;;;15.93;5.13;;;16.40;99.90;;;;;;5068541;28;20028;-65
2021/11/11 07:24:38;;;;;;;15.85;5.00;;;16.50;99.90;;;;;;5070938;28;20020;-70
2021/11/11 07:27:05;;;;;;;12.25;4.78;;;16.50;99.90;;;;;;5070161;28;20032;-67
2021/11/11 07:29:32;;;;;;;13.55;5.03;;;16.50;99.90;;;;;;5071575;28;20029;-66
2021/11/11 07:31:59;;;;;;;11.60;4.90;;;16.50;99.90;;;;;;5071988;28;20056;-69
2021/11/11 07:34:27;;;;;;;8.40;4.22;;;16.60;99.90;;;;;;5073633;28;20028;-68
2021/11/11 07:36:55;;;;;;;9.57;4.55;;;16.70;99.90;;;;;;5071344;28;20431;-69
2021/11/11 07:39:24;;;;;;;12.98;4.60;;;16.80;99.90;;;;;;5066776;28;20032;-70
2021/11/11 07:41:51;;;;;;;15.63;5.00;;;16.80;99.90;;;;;;5070434;28;20131;-72
2021/11/11 07:44:18;;;;;;;11.70;4.57;;;16.80;99.90;;;;;;5068641;28;20032;-69
2021/11/11 07:46:45;;;;;;;11.75;4.63;;;16.70;99.90;;;;;;5070658;28;20024;-67
2021/11/11 07:49:12;;;;;;;9.13;4.10;;;16.60;99.90;;;;;;5068792;28;20032;-71
2021/11/11 07:51:39;;;;;;;10.32;4.65;;;16.50;99.90;;;;;;5072312;28;20020;-73
2021/11/11 07:54:06;;;;;;;13.35;4.35;;;16.30;99.90;;;;;;5069750;28;20080;-71
2021/11/11 07:56:36;;;;;;;12.60;5.70;;;16.20;99.90;;;;;;5052391;28;20033;-67
2021/11/11 07:59:06;;;;;;;21.70;5.85;;;16.00;99.90;;;;;;5069311;28;20048;-71
2021/11/11 08:01:34;;;;;;;12.32;5.28;;;16.00;99.90;;;;;;5067063;28;20024;-72
2021/11/11 08:04:01;;;;;;;17.75;6.50;;;15.90;99.90;;;;;;5068220;28;20408;-74
2021/11/11 08:06:28;;;;;;;14.63;4.82;;;15.90;99.90;;;;;;5053653;28;20028;-73
2021/11/11 08:08:55;;;;;;;16.73;6.78;;;15.80;99.90;;;;;;5059620;28;20024;-70
2021/11/11 08:11:23;;;;;;;13.50;5.32;;;15.80;99.90;;;;;;5062540;28;20028;-70
2021/11/11 08:13:50;;;;;;;13.00;5.45;;;15.70;99.90;;;;;;5065021;28;20157;-68
2021/11/11 08:16:20;;;;;;;13.75;6.00;;;15.60;99.90;;;;;;5060895;28;20592;-69
2021/11/11 08:18:47;;;;;;;15.25;5.70;;;15.60;99.90;;;;;;5064482;28;20526;-71
2021/11/11 08:21:14;;;;;;;14.52;4.85;;;15.60;99.90;;;;;;5062650;28;20241;-68
2021/11/11 08:23:41;;;;;;;12.68;6.03;;;15.50;99.90;;;;;;5046901;28;20698;-67
2021/11/11 08:26:08;;;;;;;19.60;6.32;;;15.40;99.90;;;;;;5063413;28;20020;-66
2021/11/11 08:28:36;;;;;;;16.08;7.30;;;15.40;99.90;;;;;;5063105;28;20020;-69
2021/11/11 08:31:03;;;;;;;19.08;5.72;;;15.40;99.90;;;;;;5062806;28;20024;-68
2021/11/11 08:33:30;;;;;;;17.15;6.45;;;15.30;99.90;;;;;;5063502;28;20281;-68
2021/11/11 08:35:57;;;;;;;15.48;5.75;;;15.20;99.90;;;;;;5064614;28;20557;-70
2021/11/11 08:38:27;;;;;;;14.45;5.82;;;15.20;99.90;;;;;;5060696;28;20032;-67
2021/11/11 08:40:55;;;;;;;22.08;7.05;;;15.20;99.90;;;;;;5063508;28;20024;-67
2021/11/11 08:43:22;;;;;;;19.27;7.10;;;15.20;99.90;;;;;;5061627;28;20028;-68
2021/11/11 08:45:50;;;;;;;21.65;8.55;;;15.00;99.90;;;;;;5064915;28;20036;-68
2021/11/11 08:48:19;;;;;;;18.42;9.38;;;15.00;99.90;;;;;;5062876;28;20112;-69
2021/11/11 08:50:46;;;;;;;21.63;9.95;;;15.00;99.90;;;;;;5062954;28;20078;-65
2021/11/11 08:53:15;;;;;;;22.00;10.38;;;15.10;99.90;;;;;;5065146;28;20481;-66
2021/11/11 08:55:43;;;;;;;19.70;8.57;;;15.30;99.90;;;;;;5066363;28;20032;-73
2021/11/11 08:58:12;;;;;;;15.77;7.15;;;15.30;99.90;;;;;;5066498;28;20038;-73
2021/11/11 09:00:44;;;;;;;13.05;6.25;;;15.30;99.90;;;;;;5067423;28;20026;-71
2021/11/11 09:03:12;;;;;;;15.07;5.95;;;15.30;99.90;;;;;;5068041;28;20119;-70
2021/11/11 09:05:40;;;;;;;11.43;5.05;;;15.20;99.90;;;;;;5066667;28;20112;-66
2021/11/11 09:08:09;;;;;;;10.25;4.38;;;15.20;99.90;;;;;;5067941;28;20028;-67
2021/11/11 09:10:39;;;;;;;10.45;5.60;;;15.30;99.90;;;;;;5069233;28;20637;-74
2021/11/11 09:13:06;;;;;;;12.25;4.60;;;15.30;99.90;;;;;;5068315;28;20414;-67
2021/11/11 09:15:33;;;;;;;20.40;6.13;;;15.20;99.90;;;;;;5066905;28;20036;-66
2021/11/11 09:18:03;;;;;;;13.50;5.75;;;15.10;99.90;;;;;;5067188;28;20032;-71
2021/11/11 09:20:31;;;;;;;13.23;4.82;;;15.00;99.90;;;;;;5067847;28;20024;-68
2021/11/11 09:23:01;;;;;;;13.98;5.18;;;14.90;99.90;;;;;;5068476;28;20051;-75
2021/11/11 09:25:31;;;;;;;8.93;3.97;;;14.90;99.90;;;;;;5067495;28;20479;-74
2021/11/11 09:28:03;;;;;;;13.82;4.32;;;14.80;99.90;;;;;;5066008;28;20563;-73
2021/11/11 09:30:36;;;;;;;13.52;4.45;;;14.70;99.90;;;;;;5066613;28;20111;-67
2021/11/11 09:33:04;;;;;;;11.85;4.10;;;14.70;99.90;;;;;;5066916;28;20225;-70
2021/11/11 09:35:32;;;;;;;16.13;5.18;;;14.60;99.90;;;;;;5067055;28;20036;-69
2021/11/11 09:38:00;;;;;;;14.70;5.10;;;14.60;99.90;;;;;;5066133;28;20490;-70
2021/11/11 09:40:29;;;;;;;15.88;5.05;;;14.50;99.90;;;;;;5067764;28;20387;-65
2021/11/11 09:42:57;;;;;;;12.30;4.28;;;14.50;99.90;;;;;;5046422;28;21058;-69
2021/11/11 09:45:27;;;;;;;12.45;5.00;;;14.50;99.90;;;;;;5066058;28;20542;-68
2021/11/11 09:47:55;;;;;;;12.00;3.75;;;14.50;99.90;;;;;;5066456;28;20020;-69
2021/11/11 09:50:26;;;;;;;11.50;3.90;;;14.50;99.90;;;;;;5065927;28;20035;-65
2021/11/11 09:52:54;;;;;;;11.40;3.83;;;14.40;99.90;;;;;;5065906;28;20056;-69
2021/11/11 10:00:58;;;;;;;11.85;4.03;;;14.20;99.90;;;;;;5066448;28;20111;-66
2021/11/11 10:03:25;;;;;;;12.40;4.55;;;14.20;99.90;;;;;;5066606;28;20059;-66
2021/11/11 10:05:52;;;;;;;11.63;5.00;;;14.20;99.90;;;;;;5069327;28;20089;-68
2021/11/11 10:08:40;;;;;;;14.38;5.22;;;14.20;99.90;;;;;;5070243;28;20020;-68
2021/11/11 10:11:35;;;;;;;16.08;5.97;;;14.20;99.90;;;;;;5038907;28;20160;-73
2021/11/11 10:14:04;;;;;;;14.50;3.85;;;14.30;99.90;;;;;;5070438;28;20040;-69
2021/11/11 10:16:35;;;;;;;10.52;4.93;;;14.30;99.90;;;;;;5070374;28;20453;-67
2021/11/11 10:19:05;;;;;;;11.27;4.35;;;14.30;99.90;;;;;;5051061;28;20192;-68
2021/11/11 10:21:42;;;;;;;11.20;3.80;;;14.30;99.90;;;;;;5071864;28;20032;-69
2021/11/11 10:24:28;;;;;;;10.63;4.13;;;14.30;99.90;;;;;;5071713;28;20065;-67
2021/11/11 10:27:00;;;;;;;13.90;3.92;;;14.30;99.90;;;;;;5070980;28;20393;-68
2021/11/11 10:29:38;;;;;;;12.45;3.42;;;14.30;99.90;;;;;;5070374;28;20073;-68
2021/11/11 10:32:13;;;;;;;11.38;3.03;;;14.30;99.90;;;;;;5071238;28;20171;-68
2021/11/11 10:34:51;;;;;;;10.15;3.67;;;14.30;99.90;;;;;;5070243;28;20746;-67
2021/11/11 10:37:20;;;;;;;7.22;3.03;;;14.30;99.90;;;;;;5074146;28;20029;-65
2021/11/11 10:40:01;;;;;;;10.43;3.45;;;14.30;99.90;;;;;;5074071;28;20107;-66
2021/11/11 10:42:33;;;;;;;12.60;3.60;;;14.30;99.90;;;;;;5055685;28;20044;-67
2021/11/11 10:45:07;;;;;;;9.05;3.15;;;14.30;99.90;;;;;;4720865;28;10000582;-66
2021/11/11 10:47:36;;;;;;;7.60;2.83;;;14.30;99.90;;;;;;5070822;28;20032;-68
2021/11/11 10:50:25;;;;;;;7.90;3.50;;;14.30;99.90;;;;;;5066793;28;20036;-70
2021/11/11 10:52:54;;;;;;;7.97;2.95;;;14.30;99.90;;;;;;5066686;28;20083;-66
2021/11/11 10:55:23;;;;;;;11.73;3.58;;;14.30;99.90;;;;;;5066772;28;20512;-68
2021/11/11 10:57:50;;;;;;;8.07;3.60;;;14.30;99.90;;;;;;5067032;28;20363;-68
2021/11/11 11:00:25;;;;;;;7.10;3.50;;;14.40;99.90;;;;;;5067269;28;20028;-69
2021/11/11 11:03:10;;;;;;;6.47;2.60;;;14.30;99.90;;;;;;5067074;28;20847;-69
2021/11/11 11:05:51;;;;;;;5.78;2.85;;;14.30;99.90;;;;;;5067531;28;20111;-70
2021/11/11 11:08:30;;;;;;;7.45;2.45;;;14.30;99.90;;;;;;5067750;28;20024;-68
2021/11/11 11:11:09;;;;;;;6.85;3.20;;;14.30;99.90;;;;;;5048924;28;20720;-65
2021/11/11 11:13:44;;;;;;;6.80;2.95;;;14.30;99.90;;;;;;5066784;28;20086;-67
2021/11/11 11:16:20;;;;;;;10.73;2.85;;;14.30;99.90;;;;;;5069097;28;20102;-68
2021/11/11 11:19:03;;;;;;;7.70;2.78;;;14.30;99.90;;;;;;5070197;28;20032;-65
2021/11/11 11:21:52;;;;;;;8.27;2.80;;;14.30;99.90;;;;;;5069718;28;20111;-67
2021/11/11 11:24:25;;;;;;;6.03;2.50;;;14.30;99.90;;;;;;5071796;28;20040;-68
2021/11/11 11:26:56;;;;;;;9.75;3.10;;;14.30;99.90;;;;;;5070774;28;20023;-67
2021/11/11 11:32:22;;;;;;;5.00;2.40;;;14.30;99.90;;;;;;5072596;28;20028;-66
2021/11/11 11:34:55;;;;;;;9.10;2.80;;;14.30;99.90;;;;;;5073444;28;20062;-68
2021/11/11 11:37:25;;;;;;;5.80;2.33;;;14.30;99.90;;;;;;5072021;28;20119;-67
2021/11/11 11:39:55;;;;;;;8.07;2.30;;;14.30;99.90;;;;;;5072368;28;20162;-66
2021/11/11 11:42:33;;;;;;;8.73;2.78;;;14.30;99.90;;;;;;5072619;28;20036;-68
2021/11/11 11:45:02;;;;;;;7.32;2.72;;;14.30;99.90;;;;;;5073303;28;20032;-67
2021/11/11 11:47:39;;;;;;;7.70;2.97;;;14.30;99.90;;;;;;5072726;28;20035;-69
2021/11/11 11:50:14;;;;;;;6.30;3.03;;;14.30;99.90;;;;;;5068296;28;20030;-67
2021/11/11 11:52:46;;;;;;;9.15;3.13;;;14.30;99.90;;;;;;5071733;28;20017;-69
2021/11/11 11:55:22;;;;;;;6.70;3.20;;;14.30;99.90;;;;;;5070776;28;20502;-65
2021/11/11 12:12:07;;;;;;;7.65;4.20;;;14.10;99.90;;;;;;5070979;28;20030;-68
2021/11/11 12:40:30;;;;;;;9.38;3.47;;;13.90;99.90;;;;;;5071710;28;20116;-68
2021/11/11 12:43:00;;;;;;;13.25;3.08;;;13.70;99.90;;;;;;5071194;28;20016;-69
2021/11/11 12:45:30;;;;;;;7.28;3.17;;;13.50;99.90;;;;;;5069782;28;20378;-67
2021/11/11 12:48:10;;;;;;;8.75;3.88;;;13.40;99.90;;;;;;5070709;28;20534;-69
2021/11/11 12:50:48;;;;;;;11.82;3.60;;;13.20;99.90;;;;;;5070340;28;20153;-67
2021/11/11 12:53:16;;;;;;;13.65;3.78;;;13.10;99.90;;;;;;5071160;28;20025;-64
2021/11/11 12:56:13;;;;;;;12.98;4.50;;;13.10;99.90;;;;;;5070562;28;20091;-67
2021/11/11 12:58:45;;;;;;;12.43;4.75;;;13.10;99.90;;;;;;5070970;28;20032;-67
2021/11/11 13:01:17;;;;;;;15.25;4.97;;;13.10;99.90;;;;;;5070104;28;20071;-68
2021/11/11 13:03:55;;;;;;;12.85;5.93;;;13.10;99.90;;;;;;5070463;28;20081;-68
2021/11/11 13:06:43;;;;;;;15.57;5.47;;;13.10;99.90;;;;;;5062168;28;20271;-67
2021/11/11 13:09:32;;;;;;;13.73;5.88;;;13.00;99.90;;;;;;5071535;28;20116;-69
2021/11/11 13:12:12;;;;;;;19.08;6.68;;;13.10;99.90;;;;;;5060278;28;20043;-68
2021/11/11 13:15:08;;;;;;;14.38;4.25;;;13.10;99.90;;;;;;5071337;28;20036;-68
2021/11/11 13:17:50;;;;;;;17.20;4.50;;;13.00;99.90;;;;;;5071401;28;20020;-67
2021/11/11 13:20:43;;;;;;;10.68;3.83;;;13.00;99.90;;;;;;5071717;28;20032;-68
2021/11/11 13:29:04;;;;;;;12.05;4.07;;;12.80;99.90;;;;;;5071311;28;20106;-69
2021/11/11 15:17:31;;;;;;;11.63;3.28;;;12.40;99.90;;;;;;5076996;28;20063;-68
2021/11/11 16:02:31;;;;;;;6.05;2.47;;;12.40;99.90;;;;;;5075623;28;20149;-71
2021/11/11 16:27:20;;;;;;;5.85;1.95;;;12.20;99.90;;;;;;5074345;28;20031;-67
2021/11/11 16:29:47;;;;;;;10.23;2.60;;;12.20;99.90;;;;;;5075355;28;20070;-68
2021/11/11 16:32:15;;;;;;;8.00;2.72;;;12.20;99.90;;;;;;5074865;28;20035;-68
2021/11/11 16:34:42;;;;;;;6.60;2.83;;;12.20;99.90;;;;;;5075270;28;20119;-68
2021/11/11 16:37:10;;;;;;;5.00;2.13;;;12.20;99.90;;;;;;5074847;28;20090;-69
2021/11/11 16:39:37;;;;;;;5.18;2.40;;;12.20;99.90;;;;;;5074030;28;20629;-70
2021/11/11 16:42:06;;;;;;;5.80;2.33;;;12.20;99.90;;;;;;5074382;28;20052;-68
2021/11/11 16:44:33;;;;;;;3.83;2.05;;;12.30;99.90;;;;;;5075076;28;20188;-68
2021/11/11 16:47:02;;;;;;;5.07;2.50;;;12.20;99.90;;;;;;5074419;28;20271;-68
2021/11/11 16:49:32;;;;;;;4.70;2.05;;;12.30;99.90;;;;;;5071933;28;20652;-67
2021/11/11 16:52:00;;;;;;;4.63;2.17;;;12.20;99.90;;;;;;5074754;28;20098;-69
2021/11/11 16:54:28;;;;;;;8.20;2.60;;;12.20;99.90;;;;;;5074606;28;20048;-67
2021/11/11 16:56:55;;;;;;;7.05;2.83;;;12.20;99.90;;;;;;5074836;28;20161;-69
2021/11/11 16:59:22;;;;;;;5.43;2.50;;;12.30;99.90;;;;;;5073554;28;20031;-68